createdAt,value
2023-03-27T00:01:22.357Z,97109.22
2023-03-27T00:03:50.391Z,97117.78
2023-03-27T00:06:19.484Z,97119.16
2023-03-27T00:08:51.213Z,97107.41
2023-03-27T00:11:20.088Z,97106.00
2023-03-27T00:13:50.823Z,97102.16
2023-03-27T00:16:19.681Z,97107.72
2023-03-27T00:18:46.723Z,97116.06
2023-03-27T00:21:13.703Z,97109.44
2023-03-27T00:23:40.718Z,97098.06
2023-03-27T00:26:07.542Z,97113.38
2023-03-27T00:28:35.476Z,97110.81
2023-03-27T00:31:02.799Z,97113.81
2023-03-27T00:33:29.528Z,97100.25
2023-03-27T00:35:56.670Z,97103.16
2023-03-27T00:38:24.511Z,97102.16
2023-03-27T00:40:54.457Z,97103.38
2023-03-27T00:43:26.246Z,97122.56
2023-03-27T00:45:58.835Z,97109.91
2023-03-27T00:48:26.181Z,97119.94
2023-03-27T00:50:53.944Z,97107.72
2023-03-27T00:53:24.981Z,97113.81
2023-03-27T00:55:54.837Z,97120.22
2023-03-27T00:58:28.644Z,97118.06
2023-03-27T01:00:57.297Z,97129.78
2023-03-27T01:03:31.115Z,97116.97
2023-03-27T01:06:01.073Z,97113.97
2023-03-27T01:08:31.944Z,97118.41
2023-03-27T01:11:01.832Z,97115.50
2023-03-27T01:13:56.599Z,97118.13
2023-03-27T01:16:51.001Z,97112.53
2023-03-27T01:20:05.388Z,97123.34
2023-03-27T01:22:59.864Z,97115.63
2023-03-27T01:25:51.619Z,97119.72
2023-03-27T01:28:30.160Z,97115.53
2023-03-27T01:31:10.151Z,97106.34
2023-03-27T01:33:56.181Z,97115.00
2023-03-27T01:36:58.273Z,97121.84
2023-03-27T01:39:27.561Z,97118.19
2023-03-27T01:42:13.899Z,97126.13
2023-03-27T01:45:02.796Z,97115.47
2023-03-27T01:47:48.008Z,97114.81
2023-03-27T01:50:29.056Z,97109.56
2023-03-27T01:53:02.161Z,97113.81
2023-03-27T01:55:34.566Z,97117.19
2023-03-27T01:58:08.502Z,97110.47
2023-03-27T02:00:51.920Z,97116.19
2023-03-27T02:03:22.718Z,97124.28
2023-03-27T02:05:56.673Z,97122.28
2023-03-27T02:08:37.606Z,97115.91
2023-03-27T02:11:13.190Z,97133.75
2023-03-27T02:13:46.020Z,97127.28
2023-03-27T02:16:18.216Z,97122.38
2023-03-27T02:18:54.440Z,97109.53
2023-03-27T02:21:23.614Z,97120.19
2023-03-27T02:23:50.659Z,97128.94
2023-03-27T02:26:17.932Z,97121.75
2023-03-27T02:29:33.860Z,97118.78
2023-03-27T02:32:19.705Z,97124.72
2023-03-27T02:34:57.165Z,97124.63
2023-03-27T02:37:46.374Z,97128.44
2023-03-27T02:40:33.525Z,97128.03
2023-03-27T02:43:37.614Z,97131.97
2023-03-27T02:46:20.652Z,97131.19
2023-03-27T02:48:55.036Z,97127.84
2023-03-27T02:51:27.150Z,97137.38
2023-03-27T02:53:55.856Z,97138.50
2023-03-27T02:56:26.132Z,97127.38
2023-03-27T02:59:20.086Z,97125.31
2023-03-27T03:01:47.276Z,97129.22
2023-03-27T03:04:31.445Z,97128.50
2023-03-27T03:06:59.165Z,97126.88
2023-03-27T03:09:30.115Z,97136.38
2023-03-27T03:11:58.170Z,97144.88
2023-03-27T03:14:31.095Z,97148.28
2023-03-27T03:16:57.975Z,97138.78
2023-03-27T03:19:24.859Z,97150.00
2023-03-27T03:21:51.985Z,97151.47
2023-03-27T03:24:19.123Z,97155.84
2023-03-27T03:26:49.913Z,97127.44
2023-03-27T03:29:19.211Z,97156.47
2023-03-27T03:32:00.843Z,97149.75
2023-03-27T03:34:27.973Z,97150.44
2023-03-27T03:36:55.268Z,97164.53
2023-03-27T03:39:28.620Z,97150.94
2023-03-27T03:41:55.423Z,97144.50
2023-03-27T03:44:22.095Z,97151.56
2023-03-27T03:46:49.254Z,97162.94
2023-03-27T03:49:20.669Z,97161.03
2023-03-27T03:51:47.974Z,97164.09
2023-03-27T03:54:32.916Z,97179.84
2023-03-27T03:57:00.004Z,97179.94
2023-03-27T03:59:26.977Z,97184.63
2023-03-27T04:02:18.263Z,97192.28
2023-03-27T04:04:46.567Z,97191.88
2023-03-27T04:07:13.925Z,97196.78
2023-03-27T04:09:45.487Z,97210.75
2023-03-27T04:12:23.698Z,97209.91
2023-03-27T04:14:57.983Z,97196.59
2023-03-27T04:17:44.170Z,97200.28
2023-03-27T04:20:15.194Z,97204.72
2023-03-27T04:22:46.453Z,97209.41
2023-03-27T04:25:17.281Z,97198.50
2023-03-27T04:27:45.024Z,97209.13
2023-03-27T04:30:23.101Z,97201.69
2023-03-27T04:33:25.741Z,97209.41
2023-03-27T04:36:16.098Z,97216.91
2023-03-27T04:38:54.256Z,97231.97
2023-03-27T04:41:21.409Z,97222.91
2023-03-27T04:43:48.236Z,97222.38
2023-03-27T04:46:14.953Z,97218.56
2023-03-27T04:48:43.248Z,97223.66
2023-03-27T04:51:26.730Z,97228.47
2023-03-27T04:53:56.485Z,97232.91
2023-03-27T04:56:24.948Z,97237.81
2023-03-27T04:58:54.424Z,97240.25
2023-03-27T05:01:21.465Z,97245.69
2023-03-27T05:04:06.939Z,97242.06
2023-03-27T05:06:44.590Z,97254.78
2023-03-27T05:09:15.557Z,97255.09
2023-03-27T05:11:44.815Z,97260.56
2023-03-27T05:14:11.422Z,97278.09
2023-03-27T05:16:41.230Z,97284.34
2023-03-27T05:19:11.276Z,97290.28
2023-03-27T05:21:43.376Z,97290.78
2023-03-27T05:24:11.320Z,97295.69
2023-03-27T05:26:39.140Z,97290.59
2023-03-27T05:29:06.115Z,97282.88
2023-03-27T05:31:37.154Z,97275.75
2023-03-27T05:34:24.149Z,97299.72
2023-03-27T05:36:55.081Z,97314.16
2023-03-27T05:39:22.263Z,97306.25
2023-03-27T05:41:49.296Z,97299.84
2023-03-27T05:44:22.224Z,97313.31
2023-03-27T05:46:49.465Z,97308.97
2023-03-27T05:49:22.802Z,97318.22
2023-03-27T05:51:55.161Z,97313.56
2023-03-27T05:54:22.051Z,97326.94
2023-03-27T05:56:54.789Z,97332.44
2023-03-27T05:59:22.045Z,97344.59
2023-03-27T06:01:51.954Z,97339.28
2023-03-27T06:04:24.371Z,97346.88
2023-03-27T06:07:03.165Z,97343.50
2023-03-27T06:09:31.813Z,97355.25
2023-03-27T06:12:18.824Z,97362.97
2023-03-27T06:14:46.767Z,97363.38
2023-03-27T06:17:36.413Z,97365.22
2023-03-27T06:20:12.466Z,97369.25
2023-03-27T06:22:55.682Z,97375.66
2023-03-27T06:25:32.330Z,97376.41
2023-03-27T06:27:59.605Z,97386.78
2023-03-27T06:30:27.234Z,97397.19
2023-03-27T06:33:20.800Z,97393.09
2023-03-27T06:35:53.074Z,97375.28
2023-03-27T06:38:32.009Z,97401.47
2023-03-27T06:41:00.522Z,97399.53
2023-03-27T06:43:52.868Z,97397.69
2023-03-27T06:46:44.724Z,97411.69
2023-03-27T06:49:38.486Z,97414.97
2023-03-27T06:52:12.172Z,97416.84
2023-03-27T06:54:39.101Z,97435.44
2023-03-27T06:57:06.452Z,97447.00
2023-03-27T06:59:48.867Z,97450.41
2023-03-27T07:02:20.555Z,97460.66
2023-03-27T07:05:04.247Z,97463.88
2023-03-27T07:07:36.137Z,97484.28
2023-03-27T07:10:03.531Z,97495.47
2023-03-27T07:12:30.593Z,97504.88
2023-03-27T07:14:57.807Z,97508.78
2023-03-27T07:17:37.840Z,97498.34
2023-03-27T07:20:13.104Z,97506.59
2023-03-27T07:22:43.272Z,97499.22
2023-03-27T07:25:21.359Z,97499.19
2023-03-27T07:27:48.302Z,97497.72
2023-03-27T07:30:15.208Z,97502.97
2023-03-27T07:32:44.709Z,97524.75
2023-03-27T07:35:12.029Z,97528.00
2023-03-27T07:37:39.393Z,97525.22
2023-03-27T07:40:36.948Z,97546.84
2023-03-27T07:43:35.781Z,97546.53
2023-03-27T07:46:06.110Z,97565.97
2023-03-27T07:48:32.990Z,97572.16
2023-03-27T07:51:10.678Z,97565.41
2023-03-27T07:53:41.605Z,97572.88
2023-03-27T07:56:21.087Z,97584.25
2023-03-27T07:58:49.241Z,97579.53
2023-03-27T08:01:20.448Z,97600.47
2023-03-27T08:03:48.964Z,97601.25
2023-03-27T08:06:18.116Z,97595.25
2023-03-27T08:08:46.016Z,97598.31
2023-03-27T08:11:23.129Z,97608.81
2023-03-27T08:13:57.072Z,97619.31
2023-03-27T08:16:27.768Z,97628.06
2023-03-27T08:18:57.698Z,97644.00
2023-03-27T08:21:26.244Z,97647.38
2023-03-27T08:23:57.313Z,97656.63
2023-03-27T08:26:27.902Z,97666.38
2023-03-27T08:29:02.000Z,97660.44
2023-03-27T08:31:31.307Z,97690.94
2023-03-27T08:34:00.291Z,97690.22
2023-03-27T08:36:34.426Z,97684.56
2023-03-27T08:39:02.542Z,97678.63
2023-03-27T08:41:42.526Z,97648.72
2023-03-27T08:44:17.880Z,97675.63
2023-03-27T08:47:11.318Z,97687.44
2023-03-27T08:49:52.688Z,97686.63
2023-03-27T08:52:31.932Z,97691.66
2023-03-27T08:55:49.863Z,97699.25
2023-03-27T08:58:22.427Z,97696.78
2023-03-27T09:01:17.397Z,97701.25
2023-03-27T09:03:56.791Z,97696.50
2023-03-27T09:06:25.869Z,97702.03
2023-03-27T09:09:18.810Z,97706.34
2023-03-27T09:12:05.381Z,97697.72
2023-03-27T09:14:40.868Z,97713.53
2023-03-27T09:17:17.151Z,97714.56
2023-03-27T09:20:17.642Z,97713.41
2023-03-27T09:22:52.788Z,97727.47
2023-03-27T09:25:38.082Z,97735.56
2023-03-27T09:28:50.572Z,97747.47
2023-03-27T09:31:23.062Z,97741.56
2023-03-27T09:33:49.777Z,97751.63
2023-03-27T09:36:17.332Z,97727.56
2023-03-27T09:38:50.697Z,97740.09
2023-03-27T09:41:23.822Z,97733.63
2023-03-27T09:44:06.355Z,97731.56
2023-03-27T09:46:40.237Z,97732.59
2023-03-27T09:49:14.043Z,97733.09
2023-03-27T09:51:56.761Z,97733.56
2023-03-27T09:54:54.976Z,97730.44
2023-03-27T09:57:35.453Z,97742.72
2023-03-27T10:00:21.498Z,97744.28
2023-03-27T10:03:07.988Z,97735.63
2023-03-27T10:05:38.919Z,97745.69
2023-03-27T10:08:26.649Z,97734.94
2023-03-27T10:11:33.179Z,97722.31
2023-03-27T10:14:17.564Z,97761.66
2023-03-27T10:16:46.285Z,97734.03
2023-03-27T10:19:41.430Z,97740.50
2023-03-27T10:22:21.625Z,97740.38
2023-03-27T10:24:49.586Z,97731.25
2023-03-27T10:27:34.525Z,97730.66
2023-03-27T10:30:38.082Z,97718.47
2023-03-27T10:33:34.158Z,97752.34
2023-03-27T10:36:37.988Z,97734.63
2023-03-27T10:39:13.843Z,97734.16
2023-03-27T10:42:04.738Z,97732.00
2023-03-27T10:44:37.566Z,97740.84
2023-03-27T10:47:15.040Z,97747.59
2023-03-27T10:49:48.423Z,97738.84
2023-03-27T10:52:38.068Z,97736.59
2023-03-27T10:55:34.537Z,97743.97
2023-03-27T10:58:06.517Z,97726.13
2023-03-27T11:00:41.077Z,97741.47
2023-03-27T11:03:16.448Z,97771.00
2023-03-27T11:05:48.429Z,97755.84
2023-03-27T11:08:56.405Z,97781.81
2023-03-27T11:11:32.619Z,97750.84
2023-03-27T11:14:05.398Z,97765.28
2023-03-27T11:16:41.101Z,97746.84
2023-03-27T11:19:36.090Z,97753.47
2023-03-27T11:22:33.040Z,97754.97
2023-03-27T11:25:35.382Z,97745.16
2023-03-27T11:28:08.036Z,97746.41
2023-03-27T11:30:44.241Z,97770.44
2023-03-27T11:33:29.628Z,97769.28
2023-03-27T11:36:30.032Z,97768.09
2023-03-27T11:39:22.677Z,97767.03
2023-03-27T11:41:54.245Z,97767.34
2023-03-27T11:44:23.646Z,97784.91
2023-03-27T11:47:18.765Z,97775.47
2023-03-27T11:50:24.971Z,97764.84
2023-03-27T11:53:51.439Z,97774.22
2023-03-27T11:57:04.303Z,97782.81
2023-03-27T11:59:51.236Z,97803.88
2023-03-27T12:02:57.592Z,97779.84
2023-03-27T12:06:05.423Z,97808.97
2023-03-27T12:08:43.048Z,97807.47
2023-03-27T12:11:14.784Z,97788.38
2023-03-27T12:14:17.509Z,97781.19
2023-03-27T12:17:12.624Z,97788.38
2023-03-27T12:20:53.001Z,97801.22
2023-03-27T12:23:41.494Z,97795.69
2023-03-27T12:27:08.069Z,97798.44
2023-03-27T12:30:14.752Z,97798.75
2023-03-27T12:32:52.099Z,97803.44
2023-03-27T12:35:26.998Z,97800.72
2023-03-27T12:38:04.070Z,97811.63
2023-03-27T12:40:48.054Z,97794.06
2023-03-27T12:43:39.809Z,97808.69
2023-03-27T12:46:23.057Z,97802.13
2023-03-27T12:49:10.608Z,97786.25
2023-03-27T12:51:51.330Z,97790.69
2023-03-27T12:54:39.394Z,97788.91
2023-03-27T12:57:24.943Z,97797.28
2023-03-27T12:59:59.153Z,97790.59
2023-03-27T13:03:11.760Z,97798.78
2023-03-27T13:06:01.554Z,97789.28
2023-03-27T13:08:55.443Z,97796.19
2023-03-27T13:11:37.282Z,97800.94
2023-03-27T13:14:16.371Z,97804.78
2023-03-27T13:16:49.357Z,97798.69
2023-03-27T13:19:38.709Z,97797.38
2023-03-27T13:22:43.040Z,97808.91
2023-03-27T13:25:40.307Z,97800.66
2023-03-27T13:28:34.458Z,97811.53
2023-03-27T13:31:14.668Z,97805.25
2023-03-27T13:34:26.981Z,97816.59
2023-03-27T13:37:11.808Z,97809.16
2023-03-27T13:39:56.179Z,97814.06
2023-03-27T13:42:37.647Z,97818.91
2023-03-27T13:45:17.674Z,97814.75
2023-03-27T13:48:13.824Z,97821.41
2023-03-27T13:51:11.227Z,97830.09
2023-03-27T13:53:38.589Z,97842.88
2023-03-27T13:56:29.896Z,97839.50
2023-03-27T13:58:59.592Z,97852.97
2023-03-27T14:01:45.306Z,97855.16
2023-03-27T14:04:24.165Z,97847.91
2023-03-27T14:07:09.543Z,97855.16
2023-03-27T14:09:48.102Z,97877.75
2023-03-27T14:12:38.110Z,97862.28
2023-03-27T14:15:26.989Z,97873.16
2023-03-27T14:18:29.037Z,97896.28
2023-03-27T14:21:00.598Z,97893.25
2023-03-27T14:23:32.481Z,97891.41
2023-03-27T14:26:29.660Z,97894.44
2023-03-27T14:29:01.826Z,97880.19
2023-03-27T14:31:38.192Z,97911.41
2023-03-27T14:34:12.169Z,97913.66
2023-03-27T14:36:49.841Z,97907.56
2023-03-27T14:39:28.420Z,97892.78
2023-03-27T14:42:03.372Z,97910.81
2023-03-27T14:44:33.997Z,97931.56
2023-03-27T14:47:12.852Z,97930.19
2023-03-27T14:49:47.466Z,97922.16
2023-03-27T14:52:25.671Z,97935.94
2023-03-27T14:55:15.498Z,97940.41
2023-03-27T14:57:44.582Z,97941.97
2023-03-27T15:00:18.901Z,97927.78
2023-03-27T15:02:48.607Z,97931.19
2023-03-27T15:05:18.491Z,97959.13
2023-03-27T15:07:51.651Z,97957.22
2023-03-27T15:10:37.576Z,97960.53
2023-03-27T15:13:10.037Z,97964.13
2023-03-27T15:15:42.859Z,97952.38
2023-03-27T15:18:49.337Z,97965.25
2023-03-27T15:21:58.502Z,97958.72
2023-03-27T15:24:30.645Z,97979.31
2023-03-27T15:27:00.449Z,97981.66
2023-03-27T15:29:48.027Z,97962.59
2023-03-27T15:32:22.121Z,97982.78
2023-03-27T15:34:56.856Z,97992.81
2023-03-27T15:37:32.951Z,97988.91
2023-03-27T15:40:01.676Z,97991.44
2023-03-27T15:42:48.416Z,97995.47
2023-03-27T15:45:16.904Z,98007.81
2023-03-27T15:47:45.465Z,98023.94
2023-03-27T15:50:22.656Z,98011.88
2023-03-27T15:52:55.067Z,98027.75
2023-03-27T15:55:40.682Z,98022.56
2023-03-27T15:58:39.984Z,98024.22
2023-03-27T16:01:18.298Z,98028.91
2023-03-27T16:03:48.277Z,98038.06
2023-03-27T16:06:26.704Z,98041.31
2023-03-27T16:08:55.057Z,98046.06
2023-03-27T16:11:40.459Z,98044.63
2023-03-27T16:14:21.804Z,98054.53
2023-03-27T16:16:53.766Z,98060.06
2023-03-27T16:19:20.800Z,98058.31
2023-03-27T16:21:55.785Z,98059.84
2023-03-27T16:24:22.616Z,98074.16
2023-03-27T16:26:50.371Z,98065.34
2023-03-27T16:29:18.722Z,98066.78
2023-03-27T16:31:45.331Z,98079.09
2023-03-27T16:34:22.910Z,98092.59
2023-03-27T16:36:50.371Z,98103.97
2023-03-27T16:39:17.059Z,98094.84
2023-03-27T16:41:43.803Z,98101.78
2023-03-27T16:44:10.848Z,98106.81
2023-03-27T16:46:37.871Z,98112.91
2023-03-27T16:49:04.540Z,98116.19
2023-03-27T16:51:31.628Z,98132.41
2023-03-27T16:53:58.311Z,98102.00
2023-03-27T16:56:25.042Z,98132.84
2023-03-27T16:58:51.737Z,98136.66
2023-03-27T17:01:18.836Z,98141.78
2023-03-27T17:03:46.497Z,98149.31
2023-03-27T17:06:15.159Z,98160.59
2023-03-27T17:08:42.253Z,98159.97
2023-03-27T17:11:11.686Z,98173.22
2023-03-27T17:13:42.924Z,98171.31
2023-03-27T17:16:10.749Z,98187.22
2023-03-27T17:18:37.529Z,98194.53
2023-03-27T17:21:04.510Z,98194.53
2023-03-27T17:23:31.719Z,98196.84
2023-03-27T17:26:03.275Z,98198.88
2023-03-27T17:28:31.058Z,98213.69
2023-03-27T17:31:04.430Z,98227.91
2023-03-27T17:33:32.952Z,98235.53
2023-03-27T17:35:59.814Z,98237.41
2023-03-27T17:38:27.566Z,98253.06
2023-03-27T17:40:54.354Z,98256.31
2023-03-27T17:43:21.143Z,98268.38
2023-03-27T17:45:49.040Z,98277.25
2023-03-27T17:48:15.939Z,98282.41
2023-03-27T17:53:12.332Z,98306.31
2023-03-27T17:55:42.634Z,98303.75
2023-03-27T17:58:10.195Z,98320.09
2023-03-27T18:00:41.382Z,98321.84
2023-03-27T18:03:09.014Z,98329.13
2023-03-27T18:05:38.034Z,98330.97
2023-03-27T18:08:06.114Z,98339.75
2023-03-27T18:10:36.077Z,98346.31
2023-03-27T18:13:03.392Z,98353.97
2023-03-27T18:15:30.448Z,98371.50
2023-03-27T18:17:57.974Z,98378.25
2023-03-27T18:20:24.610Z,98385.50
2023-03-27T18:22:51.221Z,98391.41
2023-03-27T18:25:18.061Z,98398.66
2023-03-27T18:27:45.113Z,98406.44
2023-03-27T18:30:17.259Z,98413.44
2023-03-27T18:32:45.809Z,98416.38
2023-03-27T18:35:17.739Z,98427.66
2023-03-27T18:37:45.529Z,98425.28
2023-03-27T18:40:15.082Z,98439.66
2023-03-27T18:42:45.358Z,98452.78
2023-03-27T18:45:14.275Z,98457.34
2023-03-27T18:47:42.927Z,98475.91
2023-03-27T18:50:13.880Z,98488.84
2023-03-27T18:52:41.573Z,98482.56
2023-03-27T18:55:09.633Z,98500.97
2023-03-27T18:57:36.792Z,98496.00
2023-03-27T19:00:07.469Z,98505.84
2023-03-27T19:02:36.244Z,98521.84
2023-03-27T19:05:04.145Z,98521.25
2023-03-27T19:07:31.267Z,98523.31
2023-03-27T19:09:58.767Z,98523.41
2023-03-27T19:12:37.016Z,98538.81
2023-03-27T19:15:33.646Z,98548.50
2023-03-27T19:18:01.182Z,98552.16
2023-03-27T19:21:03.313Z,98562.34
2023-03-27T19:23:48.813Z,98568.84
2023-03-27T19:26:21.955Z,98585.19
2023-03-27T19:28:48.641Z,98573.16
2023-03-27T19:31:15.787Z,98583.84
2023-03-27T19:33:42.892Z,98583.69
2023-03-27T19:36:10.165Z,98583.97
2023-03-27T19:38:38.446Z,98586.41
2023-03-27T19:41:08.667Z,98589.97
2023-03-27T19:43:35.435Z,98599.88
2023-03-27T19:46:15.082Z,98617.53
2023-03-27T19:48:50.076Z,98616.63
2023-03-27T19:51:28.617Z,98619.22
2023-03-27T19:53:55.571Z,98620.91
2023-03-27T19:56:24.647Z,98625.69
2023-03-27T19:58:52.303Z,98631.63
2023-03-27T20:01:19.889Z,98633.38
2023-03-27T20:03:47.007Z,98633.38
2023-03-27T20:06:18.996Z,98642.59
2023-03-27T20:08:46.054Z,98643.78
2023-03-27T20:11:15.059Z,98640.34
2023-03-27T20:13:55.463Z,98655.69
2023-03-27T20:16:26.354Z,98642.59
2023-03-27T20:19:04.183Z,98656.16
2023-03-27T20:21:40.351Z,98648.31
2023-03-27T20:24:12.698Z,98658.75
2023-03-27T20:26:48.011Z,98662.06
2023-03-27T20:29:21.075Z,98657.28
2023-03-27T20:31:48.591Z,98653.44
2023-03-27T20:34:19.756Z,98658.41
2023-03-27T20:36:47.529Z,98662.81
2023-03-27T20:39:34.727Z,98665.78
2023-03-27T20:42:01.410Z,98659.69
2023-03-27T20:44:36.512Z,98651.94
2023-03-27T20:47:10.688Z,98648.78
2023-03-27T20:49:41.535Z,98651.19
2023-03-27T20:52:13.858Z,98652.09
2023-03-27T20:54:40.651Z,98646.41
2023-03-27T20:57:11.154Z,98653.34
2023-03-27T20:59:38.166Z,98654.63
2023-03-27T21:02:05.164Z,98659.69
2023-03-27T21:04:32.770Z,98636.69
2023-03-27T21:06:59.816Z,98654.16
2023-03-27T21:09:27.568Z,98648.06
2023-03-27T21:11:55.626Z,98645.66
2023-03-27T21:14:23.230Z,98637.91
2023-03-27T21:16:50.362Z,98639.69
2023-03-27T21:19:20.211Z,98652.16
2023-03-27T21:21:47.053Z,98651.53
2023-03-27T21:24:14.085Z,98656.53
2023-03-27T21:26:41.483Z,98642.72
2023-03-27T21:29:10.809Z,98661.94
2023-03-27T21:31:41.752Z,98656.59
2023-03-27T21:34:08.640Z,98663.91
2023-03-27T21:36:35.588Z,98665.03
2023-03-27T21:39:02.413Z,98659.38
2023-03-27T21:41:29.300Z,98657.53
2023-03-27T21:43:55.991Z,98660.72
2023-03-27T21:46:23.020Z,98668.03
2023-03-27T21:48:50.820Z,98674.69
2023-03-27T21:51:17.901Z,98668.25
2023-03-27T21:53:45.971Z,98667.31
2023-03-27T21:56:12.870Z,98660.53
2023-03-27T21:58:39.593Z,98663.03
2023-03-27T22:01:06.871Z,98662.34
2023-03-27T22:03:33.597Z,98653.75
2023-03-27T22:06:12.161Z,98647.47
2023-03-27T22:08:42.147Z,98653.34
2023-03-27T22:11:10.433Z,98648.34
2023-03-27T22:13:38.395Z,98649.50
2023-03-27T22:16:10.905Z,98647.13
2023-03-27T22:18:37.756Z,98646.44
2023-03-27T22:21:22.073Z,98653.75
2023-03-27T22:23:50.814Z,98646.06
2023-03-27T22:26:25.920Z,98651.91
2023-03-27T22:28:52.870Z,98653.81
2023-03-27T22:31:21.224Z,98640.13
2023-03-27T22:33:48.717Z,98654.13
2023-03-27T22:36:15.696Z,98655.91
2023-03-27T22:38:42.923Z,98658.53
2023-03-27T22:41:11.306Z,98667.03
2023-03-27T22:43:38.205Z,98666.34
2023-03-27T22:46:09.902Z,98666.97
2023-03-27T22:48:36.934Z,98652.13
2023-03-27T22:51:03.971Z,98673.44
2023-03-27T22:53:34.137Z,98672.75
2023-03-27T22:56:01.922Z,98666.88
2023-03-27T22:58:31.324Z,98664.75
2023-03-27T23:00:58.575Z,98680.75
2023-03-27T23:03:26.719Z,98680.88
2023-03-27T23:05:54.644Z,98688.66
2023-03-27T23:08:32.858Z,98692.91
2023-03-27T23:11:01.115Z,98702.31
2023-03-27T23:13:29.567Z,98700.56
2023-03-27T23:15:56.303Z,98707.72
2023-03-27T23:18:25.211Z,98714.50
2023-03-27T23:20:56.174Z,98714.78
2023-03-27T23:23:23.239Z,98709.97
2023-03-27T23:25:50.241Z,98712.66
2023-03-27T23:28:17.010Z,98721.34
2023-03-27T23:30:51.442Z,98720.75
2023-03-27T23:33:18.272Z,98719.19
2023-03-27T23:35:44.870Z,98725.22
2023-03-27T23:38:11.537Z,98724.34
2023-03-27T23:40:38.876Z,98725.31
2023-03-27T23:43:05.462Z,98733.03
2023-03-27T23:45:32.095Z,98731.09
2023-03-27T23:47:58.851Z,98708.72
2023-03-27T23:50:25.787Z,98720.41
2023-03-27T23:52:52.464Z,98723.34
2023-03-27T23:55:19.094Z,98731.09
2023-03-27T23:57:45.827Z,98729.41
